createdAt,value
2023-02-09T00:01:28.131Z,2.78
2023-02-09T00:04:02.800Z,3.03
2023-02-09T00:06:35.917Z,2.95
2023-02-09T00:09:04.699Z,3.20
2023-02-09T00:11:51.593Z,3.00
2023-02-09T00:14:22.408Z,2.97
2023-02-09T00:16:52.729Z,2.90
2023-02-09T00:19:24.548Z,3.20
2023-02-09T00:21:57.644Z,2.97
2023-02-09T00:24:28.388Z,2.90
2023-02-09T00:27:04.794Z,3.05
2023-02-09T00:29:34.876Z,3.00
2023-02-09T00:32:08.589Z,3.05
2023-02-09T00:34:41.472Z,3.05
2023-02-09T00:37:20.425Z,2.90
2023-02-09T00:39:50.253Z,2.83
2023-02-09T00:42:20.311Z,3.08
2023-02-09T00:44:47.905Z,2.75
2023-02-09T00:47:20.865Z,2.80
2023-02-09T00:49:56.028Z,2.92
2023-02-09T00:52:32.654Z,3.20
2023-02-09T00:55:04.657Z,3.00
2023-02-09T00:57:32.776Z,3.00
2023-02-09T01:00:03.443Z,2.90
2023-02-09T01:02:34.306Z,2.88
2023-02-09T01:05:14.775Z,3.00
2023-02-09T01:07:49.841Z,3.30
2023-02-09T01:10:19.488Z,2.80
2023-02-09T01:12:53.076Z,3.17
2023-02-09T01:15:23.622Z,2.90
2023-02-09T01:17:59.513Z,3.13
2023-02-09T01:20:27.728Z,2.65
2023-02-09T01:22:58.631Z,2.97
2023-02-09T01:25:31.274Z,3.10
2023-02-09T01:28:01.099Z,2.95
2023-02-09T01:30:31.814Z,2.90
2023-02-09T01:33:02.421Z,3.20
2023-02-09T01:35:35.627Z,2.90
2023-02-09T01:38:08.755Z,3.05
2023-02-09T01:40:46.804Z,2.88
2023-02-09T01:43:17.965Z,2.97
2023-02-09T01:45:54.660Z,3.00
2023-02-09T01:48:31.697Z,3.08
2023-02-09T01:51:09.326Z,3.25
2023-02-09T01:53:44.869Z,2.95
2023-02-09T01:56:26.904Z,2.83
2023-02-09T01:58:59.899Z,3.03
2023-02-09T02:01:33.107Z,2.95
2023-02-09T02:04:06.095Z,3.00
2023-02-09T02:06:37.378Z,2.77
2023-02-09T02:09:18.540Z,3.00
2023-02-09T02:11:52.874Z,2.78
2023-02-09T02:14:35.375Z,2.50
2023-02-09T02:17:29.595Z,2.90
2023-02-09T02:20:10.581Z,2.75
2023-02-09T02:22:54.182Z,2.92
2023-02-09T02:25:30.565Z,2.90
2023-02-09T02:28:38.685Z,2.65
2023-02-09T02:31:34.209Z,2.80
2023-02-09T02:34:15.077Z,2.75
2023-02-09T02:37:08.690Z,2.75
2023-02-09T02:40:03.667Z,2.65
2023-02-09T02:42:52.142Z,2.85
2023-02-09T02:45:34.059Z,2.90
2023-02-09T02:48:19.863Z,2.75
2023-02-09T02:50:54.598Z,2.65
2023-02-09T02:53:29.837Z,2.97
2023-02-09T02:56:05.869Z,2.80
2023-02-09T02:58:37.819Z,2.67
2023-02-09T03:01:14.378Z,2.60
2023-02-09T03:03:46.424Z,2.45
2023-02-09T03:06:18.021Z,2.63
2023-02-09T03:08:58.533Z,2.75
2023-02-09T03:11:37.862Z,2.65
2023-02-09T03:14:32.478Z,2.60
2023-02-09T03:17:11.442Z,2.35
2023-02-09T03:19:54.530Z,2.60
2023-02-09T03:22:46.647Z,2.57
2023-02-09T03:25:39.998Z,2.88
2023-02-09T03:28:16.928Z,2.67
2023-02-09T03:30:46.754Z,2.40
2023-02-09T03:33:35.811Z,2.55
2023-02-09T03:36:10.172Z,2.60
2023-02-09T03:38:43.329Z,2.70
2023-02-09T03:41:11.089Z,2.40
2023-02-09T03:44:01.981Z,2.58
2023-02-09T03:46:33.730Z,2.70
2023-02-09T03:49:06.470Z,2.75
2023-02-09T03:51:33.972Z,2.67
2023-02-09T03:54:04.511Z,2.50
2023-02-09T03:56:39.997Z,2.50
2023-02-09T03:59:10.765Z,2.50
2023-02-09T04:01:41.046Z,2.65
2023-02-09T04:04:14.604Z,2.85
2023-02-09T04:06:44.322Z,2.70
2023-02-09T04:09:16.048Z,2.40
2023-02-09T04:11:47.244Z,2.83
2023-02-09T04:14:17.356Z,2.90
2023-02-09T04:16:44.981Z,2.70
2023-02-09T04:19:18.365Z,2.53
2023-02-09T04:21:56.208Z,2.47
2023-02-09T04:24:31.909Z,2.78
2023-02-09T04:27:08.640Z,2.60
2023-02-09T04:29:41.216Z,2.33
2023-02-09T04:32:14.248Z,2.53
2023-02-09T04:34:47.481Z,2.35
2023-02-09T04:37:17.675Z,2.50
2023-02-09T04:39:53.366Z,2.30
2023-02-09T04:42:24.836Z,2.63
2023-02-09T04:44:59.892Z,2.53
2023-02-09T04:47:27.652Z,2.45
2023-02-09T04:50:00.038Z,2.50
2023-02-09T04:52:32.709Z,2.55
2023-02-09T04:55:02.924Z,2.40
2023-02-09T04:57:50.911Z,2.13
2023-02-09T05:00:18.741Z,2.40
2023-02-09T05:02:51.630Z,2.38
2023-02-09T05:05:21.887Z,2.47
2023-02-09T05:07:52.481Z,2.03
2023-02-09T05:10:23.258Z,2.53
2023-02-09T05:12:54.886Z,2.35
2023-02-09T05:15:25.153Z,2.22
2023-02-09T05:17:57.956Z,2.50
2023-02-09T05:20:30.109Z,2.58
2023-02-09T05:23:03.831Z,2.30
2023-02-09T05:28:04.153Z,2.15
2023-02-09T05:30:34.968Z,2.30
2023-02-09T05:33:04.727Z,2.58
2023-02-09T05:35:33.016Z,2.53
2023-02-09T05:38:02.821Z,2.40
2023-02-09T05:40:45.334Z,2.53
2023-02-09T05:43:17.696Z,2.10
2023-02-09T05:45:50.808Z,2.40
2023-02-09T05:48:20.998Z,2.60
2023-02-09T05:50:50.973Z,2.10
2023-02-09T05:53:20.929Z,2.30
2023-02-09T05:55:51.364Z,2.28
2023-02-09T05:58:22.541Z,2.30
2023-02-09T06:00:55.398Z,2.28
2023-02-09T06:03:28.398Z,2.30
2023-02-09T06:05:58.421Z,2.30
2023-02-09T06:08:28.416Z,2.38
2023-02-09T06:11:02.854Z,2.35
2023-02-09T06:13:35.561Z,2.28
2023-02-09T06:16:06.150Z,2.30
2023-02-09T06:18:38.855Z,2.60
2023-02-09T06:21:15.466Z,2.25
2023-02-09T06:23:45.396Z,2.20
2023-02-09T06:26:15.916Z,2.80
2023-02-09T06:28:49.668Z,2.40
2023-02-09T06:31:18.008Z,2.42
2023-02-09T06:33:48.466Z,2.15
2023-02-09T06:36:21.756Z,2.53
2023-02-09T06:38:54.392Z,1.92
2023-02-09T06:41:24.761Z,2.08
2023-02-09T06:43:57.181Z,2.00
2023-02-09T06:46:35.251Z,2.30
2023-02-09T06:49:07.956Z,2.40
2023-02-09T06:51:41.367Z,2.25
2023-02-09T06:54:12.256Z,2.20
2023-02-09T06:56:42.635Z,2.20
2023-02-09T06:59:13.029Z,2.35
2023-02-09T07:01:48.217Z,2.17
2023-02-09T07:04:31.768Z,2.20
2023-02-09T07:07:10.229Z,2.40
2023-02-09T07:09:42.503Z,2.35
2023-02-09T07:12:15.231Z,2.50
2023-02-09T07:14:53.332Z,2.22
2023-02-09T07:17:30.948Z,2.47
2023-02-09T07:20:05.786Z,2.65
2023-02-09T07:22:40.966Z,2.13
2023-02-09T07:25:21.681Z,2.55
2023-02-09T07:27:52.171Z,2.28
2023-02-09T07:30:27.685Z,2.27
2023-02-09T07:33:03.298Z,2.35
2023-02-09T07:38:12.815Z,2.55
2023-02-09T07:40:49.644Z,2.20
2023-02-09T07:43:22.862Z,2.75
2023-02-09T07:46:08.664Z,2.65
2023-02-09T07:48:50.927Z,2.28
2023-02-09T07:51:25.911Z,2.40
2023-02-09T07:54:00.342Z,2.63
2023-02-09T07:56:33.515Z,2.40
2023-02-09T07:59:15.658Z,2.47
2023-02-09T08:01:54.615Z,2.42
2023-02-09T08:04:28.312Z,2.15
2023-02-09T08:07:06.088Z,2.20
2023-02-09T08:09:36.998Z,2.40
2023-02-09T08:12:09.344Z,2.40
2023-02-09T08:14:48.590Z,2.20
2023-02-09T08:17:27.987Z,2.30
2023-02-09T08:20:13.736Z,2.30
2023-02-09T08:22:49.271Z,2.10
2023-02-09T08:25:26.402Z,2.65
2023-02-09T08:28:07.985Z,2.08
2023-02-09T08:30:38.847Z,2.40
2023-02-09T08:33:14.255Z,2.30
2023-02-09T08:35:52.340Z,2.60
2023-02-09T08:38:28.124Z,2.47
2023-02-09T08:41:10.462Z,2.85
2023-02-09T08:43:44.852Z,2.88
2023-02-09T08:46:16.120Z,2.40
2023-02-09T08:48:48.976Z,2.50
2023-02-09T08:51:25.629Z,2.60
2023-02-09T08:53:56.586Z,2.70
2023-02-09T08:56:28.335Z,2.60
2023-02-09T08:58:58.993Z,2.88
2023-02-09T09:01:34.643Z,2.63
2023-02-09T09:04:07.834Z,2.45
2023-02-09T09:06:44.218Z,2.40
2023-02-09T09:09:14.942Z,2.90
2023-02-09T09:11:55.633Z,2.75
2023-02-09T09:14:58.898Z,2.70
2023-02-09T09:17:34.836Z,2.50
2023-02-09T09:20:08.709Z,2.45
2023-02-09T09:22:37.079Z,2.90
2023-02-09T09:25:08.899Z,2.70
2023-02-09T09:27:44.963Z,2.58
2023-02-09T09:30:19.667Z,2.92
2023-02-09T09:32:53.065Z,2.78
2023-02-09T09:35:22.996Z,2.42
2023-02-09T09:37:53.274Z,2.72
2023-02-09T09:40:37.368Z,2.72
2023-02-09T09:43:22.933Z,3.00
2023-02-09T09:45:53.711Z,2.90
2023-02-09T09:48:41.047Z,3.17
2023-02-09T09:51:47.228Z,3.10
2023-02-09T09:54:20.317Z,3.25
2023-02-09T09:56:54.606Z,2.80
2023-02-09T09:59:29.760Z,2.88
2023-02-09T10:02:17.130Z,3.17
2023-02-09T10:04:53.935Z,3.03
2023-02-09T10:07:31.429Z,2.63
2023-02-09T10:10:30.805Z,2.97
2023-02-09T10:13:07.078Z,3.05
2023-02-09T10:15:41.752Z,3.30
2023-02-09T10:18:17.820Z,3.03
2023-02-09T10:20:53.493Z,3.15
2023-02-09T10:23:38.588Z,3.40
2023-02-09T10:26:15.823Z,3.20
2023-02-09T10:28:59.620Z,3.25
2023-02-09T10:31:53.665Z,3.15
2023-02-09T10:34:35.695Z,3.72
2023-02-09T10:37:23.128Z,3.00
2023-02-09T10:40:00.626Z,3.17
2023-02-09T10:42:39.177Z,3.38
2023-02-09T10:45:40.292Z,3.30
2023-02-09T10:48:17.667Z,3.03
2023-02-09T10:51:09.062Z,3.35
2023-02-09T10:53:59.732Z,3.50
2023-02-09T10:56:47.184Z,3.45
2023-02-09T10:59:29.019Z,3.35
2023-02-09T11:02:22.598Z,3.00
2023-02-09T11:05:10.419Z,3.58
2023-02-09T11:07:51.054Z,3.50
2023-02-09T11:10:35.737Z,2.95
2023-02-09T11:13:32.116Z,3.00
2023-02-09T11:16:26.239Z,3.13
2023-02-09T11:19:31.874Z,3.10
2023-02-09T11:22:17.226Z,2.95
2023-02-09T11:25:14.559Z,3.20
2023-02-09T11:28:00.813Z,3.10
2023-02-09T11:30:41.497Z,3.35
2023-02-09T11:33:33.544Z,3.25
2023-02-09T11:36:45.226Z,3.15
2023-02-09T11:39:44.221Z,3.00
2023-02-09T11:42:41.239Z,3.20
2023-02-09T11:45:23.673Z,3.30
2023-02-09T11:48:09.002Z,3.35
2023-02-09T11:51:05.018Z,3.00
2023-02-09T11:54:00.148Z,3.17
2023-02-09T11:56:41.859Z,3.03
2023-02-09T11:59:37.038Z,2.75
2023-02-09T12:02:33.511Z,2.80
2023-02-09T12:05:11.876Z,3.03
2023-02-09T12:08:08.012Z,3.03
2023-02-09T12:10:55.481Z,3.05
2023-02-09T12:13:50.543Z,2.97
2023-02-09T12:16:29.136Z,3.08
2023-02-09T12:19:06.851Z,3.30
2023-02-09T12:21:48.190Z,2.95
2023-02-09T12:25:10.200Z,2.90
2023-02-09T12:28:03.986Z,2.72
2023-02-09T12:30:59.487Z,3.30
2023-02-09T12:33:27.942Z,2.97
2023-02-09T12:36:08.934Z,2.97
2023-02-09T12:38:56.861Z,2.90
2023-02-09T12:41:36.856Z,2.70
2023-02-09T12:44:14.138Z,2.60
2023-02-09T12:46:44.751Z,3.03
2023-02-09T12:49:20.945Z,3.20
2023-02-09T12:51:52.506Z,3.03
2023-02-09T12:54:51.518Z,2.95
2023-02-09T12:57:22.463Z,2.95
2023-02-09T12:59:50.986Z,2.83
2023-02-09T13:02:35.805Z,3.20
2023-02-09T13:05:13.374Z,2.72
2023-02-09T13:08:18.828Z,3.20
2023-02-09T13:11:05.993Z,2.75
2023-02-09T13:13:57.974Z,3.10
2023-02-09T13:16:39.018Z,2.40
2023-02-09T13:19:14.877Z,2.97
2023-02-09T13:22:06.841Z,2.65
2023-02-09T13:25:00.772Z,2.60
2023-02-09T13:27:31.048Z,2.85
2023-02-09T13:30:01.681Z,2.92
2023-02-09T13:33:28.274Z,2.50
2023-02-09T13:36:01.161Z,3.05
2023-02-09T13:38:33.319Z,2.90
2023-02-09T13:41:06.168Z,3.30
2023-02-09T13:43:40.619Z,2.88
2023-02-09T13:46:24.563Z,2.90
2023-02-09T13:49:09.294Z,3.05
2023-02-09T13:51:40.382Z,3.03
2023-02-09T13:54:24.212Z,2.97
2023-02-09T13:59:20.330Z,3.05
2023-02-09T14:01:49.467Z,3.05
2023-02-09T14:04:30.531Z,2.90
2023-02-09T14:07:08.611Z,2.92
2023-02-09T14:09:47.279Z,2.88
2023-02-09T14:12:42.009Z,2.80
2023-02-09T14:15:34.982Z,3.05
2023-02-09T14:18:02.770Z,3.10
2023-02-09T14:20:35.890Z,2.70
2023-02-09T14:23:18.721Z,2.83
2023-02-09T14:26:22.256Z,3.20
2023-02-09T14:29:05.379Z,2.70
2023-02-09T14:31:44.877Z,2.53
2023-02-09T14:34:30.400Z,2.92
2023-02-09T14:37:05.020Z,2.90
2023-02-09T14:39:54.625Z,2.78
2023-02-09T14:42:26.890Z,2.83
2023-02-09T14:45:02.246Z,2.90
2023-02-09T14:47:44.673Z,2.70
2023-02-09T14:50:20.630Z,3.03
2023-02-09T14:52:55.683Z,3.00
2023-02-09T14:55:30.201Z,2.90
2023-02-09T14:58:13.562Z,3.00
2023-02-09T15:00:44.459Z,2.70
2023-02-09T15:03:22.155Z,2.78
2023-02-09T15:05:58.232Z,2.90
2023-02-09T15:08:33.803Z,2.72
2023-02-09T15:11:25.338Z,2.75
2023-02-09T15:14:06.747Z,3.35
2023-02-09T15:16:40.989Z,2.78
2023-02-09T15:19:19.716Z,3.33
2023-02-09T15:22:06.544Z,3.22
2023-02-09T15:24:38.158Z,3.50
2023-02-09T15:27:41.852Z,3.08
2023-02-09T15:30:18.522Z,3.00
2023-02-09T15:32:49.889Z,3.65
2023-02-09T15:35:24.256Z,3.30
2023-02-09T15:37:59.914Z,3.25
2023-02-09T15:41:00.690Z,2.88
2023-02-09T15:43:55.056Z,3.20
2023-02-09T15:46:43.979Z,2.97
2023-02-09T15:49:17.821Z,3.28
2023-02-09T15:51:46.059Z,3.15
2023-02-09T15:54:29.134Z,3.10
2023-02-09T15:56:57.101Z,3.10
2023-02-09T15:59:27.873Z,2.83
2023-02-09T16:02:00.266Z,3.00
2023-02-09T16:04:40.309Z,3.00
2023-02-09T16:07:13.132Z,3.00
2023-02-09T16:09:43.649Z,3.17
2023-02-09T16:12:16.829Z,3.63
2023-02-09T16:14:47.117Z,3.00
2023-02-09T16:17:18.242Z,2.90
2023-02-09T16:19:49.017Z,3.15
2023-02-09T16:22:23.659Z,3.70
2023-02-09T16:24:57.363Z,3.13
2023-02-09T16:27:28.393Z,3.08
2023-02-09T16:30:01.205Z,3.10
2023-02-09T16:32:32.186Z,3.35
2023-02-09T16:35:14.880Z,3.22
2023-02-09T16:37:49.396Z,3.25
2023-02-09T16:40:25.693Z,2.95
2023-02-09T16:42:54.271Z,3.08
2023-02-09T16:45:28.150Z,2.95
2023-02-09T16:48:00.053Z,3.33
2023-02-09T16:50:34.521Z,3.33
2023-02-09T16:53:15.730Z,3.15
2023-02-09T16:55:49.588Z,3.28
2023-02-09T16:58:18.655Z,3.38
2023-02-09T17:00:49.282Z,3.30
2023-02-09T17:03:47.368Z,3.33
2023-02-09T17:06:22.408Z,2.97
2023-02-09T17:08:53.308Z,3.08
2023-02-09T17:11:24.857Z,3.00
2023-02-09T17:13:56.172Z,3.08
2023-02-09T17:16:37.008Z,3.30
2023-02-09T17:19:13.496Z,3.10
2023-02-09T17:21:50.146Z,3.40
2023-02-09T17:24:21.667Z,3.03
2023-02-09T17:26:59.428Z,3.15
2023-02-09T17:29:34.716Z,3.28
2023-02-09T17:32:11.109Z,2.85
2023-02-09T17:34:46.179Z,3.63
2023-02-09T17:37:20.104Z,3.30
2023-02-09T17:39:51.072Z,3.63
2023-02-09T17:42:26.202Z,3.15
2023-02-09T17:44:58.523Z,3.15
2023-02-09T17:47:27.102Z,3.22
2023-02-09T17:49:58.300Z,3.50
2023-02-09T17:52:38.481Z,3.53
2023-02-09T17:55:11.941Z,3.42
2023-02-09T17:57:46.076Z,4.00
2023-02-09T18:00:18.237Z,3.55
2023-02-09T18:02:52.093Z,3.42
2023-02-09T18:05:34.842Z,3.63
2023-02-09T18:08:06.195Z,3.40
2023-02-09T18:10:42.082Z,3.42
2023-02-09T18:13:17.856Z,3.65
2023-02-09T18:15:49.296Z,3.53
2023-02-09T18:18:24.505Z,3.70
2023-02-09T18:20:59.173Z,3.10
2023-02-09T18:23:32.683Z,3.40
2023-02-09T18:26:06.957Z,3.70
2023-02-09T18:28:38.371Z,3.42
2023-02-09T18:31:16.890Z,3.38
2023-02-09T18:33:47.206Z,3.40
2023-02-09T18:36:19.938Z,3.67
2023-02-09T18:38:49.176Z,3.88
2023-02-09T18:41:16.596Z,3.65
2023-02-09T18:43:44.707Z,3.33
2023-02-09T18:46:16.999Z,3.40
2023-02-09T18:48:49.027Z,3.33
2023-02-09T18:51:17.030Z,3.78
2023-02-09T18:53:50.165Z,3.40
2023-02-09T18:56:20.081Z,4.00
2023-02-09T18:58:51.526Z,3.88
2023-02-09T19:01:24.911Z,3.70
2023-02-09T19:03:54.903Z,3.35
2023-02-09T19:06:26.080Z,3.80
2023-02-09T19:08:58.582Z,3.63
2023-02-09T19:11:26.169Z,3.88
2023-02-09T19:14:17.371Z,3.78
2023-02-09T19:16:49.943Z,3.60
2023-02-09T19:19:26.123Z,4.05
2023-02-09T19:22:00.356Z,3.90
2023-02-09T19:24:30.656Z,4.32
2023-02-09T19:26:59.418Z,3.75
2023-02-09T19:29:29.994Z,3.50
2023-02-09T19:34:32.235Z,3.85
2023-02-09T19:37:07.541Z,4.15
2023-02-09T19:39:40.102Z,4.00
2023-02-09T19:42:31.315Z,4.22
2023-02-09T19:45:08.014Z,4.05
2023-02-09T19:47:37.972Z,4.15
2023-02-09T19:50:10.316Z,4.47
2023-02-09T19:52:42.914Z,4.20
2023-02-09T19:55:15.152Z,3.92
2023-02-09T19:57:43.560Z,4.13
2023-02-09T20:00:19.598Z,4.22
2023-02-09T20:02:55.164Z,4.30
2023-02-09T20:05:25.124Z,3.90
2023-02-09T20:07:57.229Z,3.85
2023-02-09T20:10:27.389Z,4.78
2023-02-09T20:12:58.302Z,4.30
2023-02-09T20:15:30.710Z,4.82
2023-02-09T20:18:05.455Z,4.13
2023-02-09T20:20:39.849Z,4.63
2023-02-09T20:23:10.121Z,4.47
2023-02-09T20:25:45.124Z,4.75
2023-02-09T20:28:17.215Z,4.40
2023-02-09T20:30:49.623Z,4.60
2023-02-09T20:33:23.417Z,5.03
2023-02-09T20:38:48.392Z,4.00
2023-02-09T20:41:24.507Z,4.38
2023-02-09T20:44:16.093Z,4.68
2023-02-09T20:47:01.189Z,4.72
2023-02-09T20:49:38.651Z,5.00
2023-02-09T20:52:13.851Z,4.60
2023-02-09T20:54:41.570Z,4.50
2023-02-09T20:57:11.517Z,4.57
2023-02-09T20:59:41.905Z,4.72
2023-02-09T21:02:12.987Z,4.90
2023-02-09T21:04:46.434Z,4.85
2023-02-09T21:07:20.328Z,5.00
2023-02-09T21:09:48.236Z,4.63
2023-02-09T21:12:16.859Z,4.72
2023-02-09T21:14:54.342Z,4.57
2023-02-09T21:17:27.131Z,5.10
2023-02-09T21:20:03.086Z,4.73
2023-02-09T21:22:36.439Z,4.90
2023-02-09T21:25:16.631Z,4.22
2023-02-09T21:27:56.008Z,4.90
2023-02-09T21:30:31.983Z,5.40
2023-02-09T21:33:02.254Z,5.15
2023-02-09T21:35:40.962Z,4.50
2023-02-09T21:38:15.447Z,4.78
2023-02-09T21:40:46.538Z,5.13
2023-02-09T21:43:16.560Z,5.33
2023-02-09T21:45:50.858Z,5.32
2023-02-09T21:50:58.311Z,5.20
2023-02-09T21:53:34.859Z,5.13
2023-02-09T21:56:09.324Z,5.38
2023-02-09T21:58:37.027Z,5.20
2023-02-09T22:01:08.496Z,5.10
2023-02-09T22:03:44.368Z,4.82
2023-02-09T22:06:12.251Z,5.05
2023-02-09T22:08:42.482Z,4.93
2023-02-09T22:11:15.600Z,5.18
2023-02-09T22:13:46.143Z,5.60
2023-02-09T22:16:20.971Z,4.97
2023-02-09T22:18:54.859Z,5.07
2023-02-09T22:21:25.512Z,5.30
2023-02-09T22:23:56.812Z,5.25
2023-02-09T22:26:27.341Z,5.07
2023-02-09T22:28:55.035Z,5.47
2023-02-09T22:31:22.789Z,5.28
2023-02-09T22:33:59.364Z,5.03
2023-02-09T22:36:26.842Z,5.50
2023-02-09T22:39:03.077Z,5.32
2023-02-09T22:41:31.439Z,5.60
2023-02-09T22:44:04.504Z,5.57
2023-02-09T22:46:37.531Z,5.20
2023-02-09T22:49:11.062Z,5.38
2023-02-09T22:51:41.282Z,5.57
2023-02-09T22:54:09.734Z,5.47
2023-02-09T22:56:42.643Z,5.72
2023-02-09T22:59:17.928Z,5.57
2023-02-09T23:01:45.845Z,5.43
2023-02-09T23:04:15.971Z,5.78
2023-02-09T23:06:46.688Z,5.22
2023-02-09T23:09:19.451Z,5.25
2023-02-09T23:11:52.690Z,5.13
2023-02-09T23:14:22.854Z,6.00
2023-02-09T23:16:52.792Z,5.53
2023-02-09T23:19:25.812Z,5.38
2023-02-09T23:21:53.221Z,5.32
2023-02-09T23:24:28.530Z,5.70
2023-02-09T23:27:01.548Z,5.95
2023-02-09T23:29:34.331Z,5.85
2023-02-09T23:32:05.638Z,5.30
2023-02-09T23:34:38.246Z,5.55
2023-02-09T23:37:13.556Z,5.88
2023-02-09T23:39:46.522Z,6.13
2023-02-09T23:42:19.377Z,5.57
2023-02-09T23:44:47.303Z,4.95
2023-02-09T23:47:20.216Z,5.60
2023-02-09T23:49:53.204Z,5.60
2023-02-09T23:52:20.761Z,5.70
2023-02-09T23:54:55.640Z,5.82
2023-02-09T23:57:26.179Z,5.90
2023-02-09T23:59:59.709Z,5.50
